createdAt,value
2023-03-17T00:00:29.384Z,92056.09
2023-03-17T00:03:02.489Z,92050.97
2023-03-17T00:05:35.761Z,92057.72
2023-03-17T00:08:15.651Z,92058.41
2023-03-17T00:10:48.177Z,92058.88
2023-03-17T00:13:20.427Z,92053.69
2023-03-17T00:15:56.230Z,92064.72
2023-03-17T00:18:30.854Z,92058.72
2023-03-17T00:21:03.851Z,92037.47
2023-03-17T00:23:36.838Z,92065.50
2023-03-17T00:26:09.883Z,92058.97
2023-03-17T00:28:44.697Z,92053.75
2023-03-17T00:31:20.278Z,92055.72
2023-03-17T00:33:53.699Z,92056.03
2023-03-17T00:36:29.962Z,92056.41
2023-03-17T00:39:03.706Z,92049.47
2023-03-17T00:41:36.114Z,92055.75
2023-03-17T00:44:08.999Z,92052.25
2023-03-17T00:46:42.090Z,92048.66
2023-03-17T00:51:49.999Z,92047.81
2023-03-17T00:54:23.477Z,92050.59
2023-03-17T00:56:56.300Z,92048.44
2023-03-17T00:59:38.474Z,92047.91
2023-03-17T01:02:11.732Z,92055.91
2023-03-17T01:04:49.919Z,92050.09
2023-03-17T01:07:25.470Z,92058.19
2023-03-17T01:09:58.889Z,92054.19
2023-03-17T01:12:31.214Z,92054.44
2023-03-17T01:15:03.923Z,92061.31
2023-03-17T01:17:37.388Z,92057.88
2023-03-17T01:20:16.337Z,92063.59
2023-03-17T01:22:49.808Z,92061.91
2023-03-17T01:25:22.945Z,92055.75
2023-03-17T01:27:56.969Z,92056.38
2023-03-17T01:30:31.670Z,92057.59
2023-03-17T01:33:06.272Z,92060.31
2023-03-17T01:35:40.600Z,92059.13
2023-03-17T01:38:14.235Z,92061.28
2023-03-17T01:40:49.279Z,92064.91
2023-03-17T01:43:24.537Z,92061.13
2023-03-17T01:46:26.753Z,92060.84
2023-03-17T01:49:08.684Z,92061.97
2023-03-17T01:51:50.644Z,92063.69
2023-03-17T01:54:30.499Z,92059.88
2023-03-17T01:57:10.250Z,92069.81
2023-03-17T01:59:46.832Z,92066.34
2023-03-17T02:02:23.953Z,92066.03
2023-03-17T02:04:58.589Z,92071.31
2023-03-17T02:07:31.284Z,92071.75
2023-03-17T02:10:05.691Z,92073.78
2023-03-17T02:12:41.733Z,92079.69
2023-03-17T02:15:15.113Z,92075.81
2023-03-17T02:17:47.899Z,92076.03
2023-03-17T02:21:12.371Z,92080.25
2023-03-17T02:23:47.712Z,92085.69
2023-03-17T02:26:22.939Z,92081.25
2023-03-17T02:28:55.524Z,92088.41
2023-03-17T02:31:28.413Z,92085.16
2023-03-17T02:34:00.826Z,92084.81
2023-03-17T02:36:33.365Z,92085.69
2023-03-17T02:39:07.374Z,92095.34
2023-03-17T02:41:39.834Z,92103.19
2023-03-17T02:44:12.400Z,92107.00
2023-03-17T02:46:44.753Z,92104.53
2023-03-17T02:49:17.542Z,92108.00
2023-03-17T02:51:50.062Z,92089.97
2023-03-17T02:54:23.176Z,92104.16
2023-03-17T02:56:55.722Z,92108.88
2023-03-17T02:59:28.272Z,92112.28
2023-03-17T03:02:00.785Z,92109.38
2023-03-17T03:04:33.113Z,92116.31
2023-03-17T03:07:05.794Z,92118.56
2023-03-17T03:09:38.766Z,92125.34
2023-03-17T03:12:13.167Z,92129.38
2023-03-17T03:14:45.634Z,92124.66
2023-03-17T03:17:18.073Z,92120.22
2023-03-17T03:19:50.367Z,92121.25
2023-03-17T03:22:22.691Z,92126.72
2023-03-17T03:24:55.671Z,92135.50
2023-03-17T03:27:27.939Z,92133.84
2023-03-17T03:30:01.340Z,92129.81
2023-03-17T03:32:33.757Z,92129.69
2023-03-17T03:35:07.663Z,92137.16
2023-03-17T03:37:39.963Z,92137.59
2023-03-17T03:40:13.723Z,92138.50
2023-03-17T03:42:46.202Z,92137.16
2023-03-17T03:45:18.687Z,92143.72
2023-03-17T03:47:51.207Z,92136.16
2023-03-17T03:50:24.162Z,92144.53
2023-03-17T03:52:56.766Z,92148.06
2023-03-17T03:55:30.143Z,92149.50
2023-03-17T03:58:02.503Z,92149.75
2023-03-17T04:00:34.844Z,92149.97
2023-03-17T04:03:07.225Z,92149.28
2023-03-17T04:05:39.774Z,92156.53
2023-03-17T04:08:12.091Z,92159.53
2023-03-17T04:10:45.119Z,92163.88
2023-03-17T04:13:17.965Z,92172.16
2023-03-17T04:15:50.486Z,92171.25
2023-03-17T04:18:23.004Z,92171.94
2023-03-17T04:20:55.377Z,92172.47
2023-03-17T04:23:28.215Z,92172.47
2023-03-17T04:26:01.744Z,92179.03
2023-03-17T04:28:34.095Z,92185.72
2023-03-17T04:31:06.961Z,92188.66
2023-03-17T04:33:39.753Z,92176.69
2023-03-17T04:36:18.622Z,92179.69
2023-03-17T04:38:51.038Z,92182.88
2023-03-17T04:41:24.148Z,92176.00
2023-03-17T04:43:56.437Z,92183.34
2023-03-17T04:46:28.890Z,92192.50
2023-03-17T04:49:01.602Z,92193.94
2023-03-17T04:51:34.674Z,92198.00
2023-03-17T04:54:07.603Z,92204.09
2023-03-17T04:56:40.546Z,92205.97
2023-03-17T04:59:13.085Z,92204.53
2023-03-17T05:01:46.437Z,92197.19
2023-03-17T05:04:30.848Z,92213.06
2023-03-17T05:07:04.394Z,92212.97
2023-03-17T05:09:37.161Z,92212.25
2023-03-17T05:12:10.963Z,92217.50
2023-03-17T05:14:43.298Z,92219.97
2023-03-17T05:17:15.592Z,92227.22
2023-03-17T05:19:47.901Z,92227.16
2023-03-17T05:22:20.446Z,92224.91
2023-03-17T05:24:52.730Z,92233.63
2023-03-17T05:27:25.761Z,92236.28
2023-03-17T05:29:58.763Z,92240.25
2023-03-17T05:32:31.888Z,92240.16
2023-03-17T05:35:05.368Z,92234.88
2023-03-17T05:37:38.041Z,92244.78
2023-03-17T05:40:12.158Z,92243.78
2023-03-17T05:42:45.381Z,92247.75
2023-03-17T05:45:17.974Z,92245.88
2023-03-17T05:47:50.437Z,92246.53
2023-03-17T05:50:22.985Z,92249.00
2023-03-17T05:52:55.278Z,92257.53
2023-03-17T05:55:27.723Z,92254.41
2023-03-17T05:58:03.937Z,92253.84
2023-03-17T06:00:37.100Z,92251.75
2023-03-17T06:03:09.522Z,92255.56
2023-03-17T06:05:41.857Z,92268.72
2023-03-17T06:08:14.299Z,92265.13
2023-03-17T06:10:47.028Z,92275.56
2023-03-17T06:13:20.048Z,92283.69
2023-03-17T06:15:52.423Z,92278.66
2023-03-17T06:18:25.141Z,92280.94
2023-03-17T06:20:57.427Z,92289.63
2023-03-17T06:23:29.762Z,92285.41
2023-03-17T06:26:02.088Z,92297.31
2023-03-17T06:28:35.050Z,92302.78
2023-03-17T06:31:08.192Z,92306.47
2023-03-17T06:33:40.868Z,92311.97
2023-03-17T06:36:13.463Z,92310.91
2023-03-17T06:38:45.783Z,92310.25
2023-03-17T06:41:19.196Z,92305.25
2023-03-17T06:43:52.370Z,92311.28
2023-03-17T06:46:24.748Z,92308.59
2023-03-17T06:48:57.398Z,92313.84
2023-03-17T06:51:30.082Z,92312.06
2023-03-17T06:54:02.945Z,92318.09
2023-03-17T06:56:35.257Z,92314.75
2023-03-17T06:59:08.314Z,92315.59
2023-03-17T07:01:40.661Z,92322.63
2023-03-17T07:04:13.141Z,92320.59
2023-03-17T07:06:45.480Z,92323.53
2023-03-17T07:09:18.027Z,92319.94
2023-03-17T07:11:50.834Z,92324.53
2023-03-17T07:14:23.800Z,92320.03
2023-03-17T07:16:56.100Z,92331.44
2023-03-17T07:19:28.553Z,92334.50
2023-03-17T07:22:01.131Z,92315.00
2023-03-17T07:24:33.762Z,92334.66
2023-03-17T07:27:06.355Z,92335.19
2023-03-17T07:29:39.316Z,92337.22
2023-03-17T07:32:11.676Z,92336.31
2023-03-17T07:34:44.002Z,92338.88
2023-03-17T07:37:16.915Z,92332.81
2023-03-17T07:39:49.414Z,92335.19
2023-03-17T07:42:21.749Z,92330.63
2023-03-17T07:44:54.822Z,92331.19
2023-03-17T07:47:27.253Z,92323.59
2023-03-17T07:49:59.576Z,92333.03
2023-03-17T07:52:31.948Z,92339.53
2023-03-17T07:55:07.725Z,92339.94
2023-03-17T07:57:40.625Z,92342.94
2023-03-17T08:00:16.513Z,92345.38
2023-03-17T08:03:03.210Z,92340.88
2023-03-17T08:05:41.599Z,92348.38
2023-03-17T08:08:14.753Z,92352.38
2023-03-17T08:10:47.394Z,92363.41
2023-03-17T08:13:19.781Z,92364.13
2023-03-17T08:15:52.989Z,92361.25
2023-03-17T08:18:25.492Z,92363.56
2023-03-17T08:20:58.028Z,92361.22
2023-03-17T08:23:30.752Z,92362.47
2023-03-17T08:26:04.579Z,92367.31
2023-03-17T08:28:36.908Z,92356.78
2023-03-17T08:31:12.631Z,92362.66
2023-03-17T08:33:47.783Z,92360.59
2023-03-17T08:36:21.007Z,92361.06
2023-03-17T08:38:53.300Z,92360.88
2023-03-17T08:41:27.751Z,92360.88
2023-03-17T08:44:00.216Z,92363.06
2023-03-17T08:46:35.335Z,92358.88
2023-03-17T08:49:08.927Z,92362.94
2023-03-17T08:51:41.690Z,92367.28
2023-03-17T08:54:14.560Z,92361.19
2023-03-17T08:56:47.067Z,92367.50
2023-03-17T08:59:20.029Z,92363.53
2023-03-17T09:01:53.085Z,92361.06
2023-03-17T09:04:25.935Z,92362.16
2023-03-17T09:07:06.601Z,92359.75
2023-03-17T09:09:40.634Z,92361.22
2023-03-17T09:12:12.962Z,92357.00
2023-03-17T09:14:46.355Z,92361.16
2023-03-17T09:17:21.090Z,92365.25
2023-03-17T09:19:53.808Z,92358.91
2023-03-17T09:22:26.415Z,92369.56
2023-03-17T09:24:58.984Z,92369.22
2023-03-17T09:27:31.360Z,92362.56
2023-03-17T09:30:04.216Z,92369.75
2023-03-17T09:32:37.315Z,92363.63
2023-03-17T09:35:10.038Z,92370.00
2023-03-17T09:37:42.439Z,92375.59
2023-03-17T09:40:18.889Z,92372.56
2023-03-17T09:43:00.847Z,92372.53
2023-03-17T09:45:35.332Z,92377.31
2023-03-17T09:48:36.209Z,92379.31
2023-03-17T09:51:11.375Z,92387.66
2023-03-17T09:53:52.117Z,92383.03
2023-03-17T09:56:25.503Z,92392.50
2023-03-17T09:59:00.874Z,92393.94
2023-03-17T10:01:33.937Z,92395.41
2023-03-17T10:04:09.084Z,92393.81
2023-03-17T10:06:43.483Z,92397.09
2023-03-17T10:09:26.171Z,92393.44
2023-03-17T10:12:04.488Z,92398.97
2023-03-17T10:14:49.495Z,92388.78
2023-03-17T10:17:26.160Z,92390.22
2023-03-17T10:20:04.111Z,92383.56
2023-03-17T10:22:43.140Z,92388.13
2023-03-17T10:25:18.536Z,92389.94
2023-03-17T10:27:56.146Z,92389.84
2023-03-17T10:30:33.171Z,92389.22
2023-03-17T10:33:07.344Z,92385.59
2023-03-17T10:35:40.645Z,92384.28
2023-03-17T10:38:19.331Z,92390.53
2023-03-17T10:40:57.173Z,92389.28
2023-03-17T10:43:34.862Z,92387.28
2023-03-17T10:46:17.961Z,92380.25
2023-03-17T10:48:53.464Z,92386.56
2023-03-17T10:51:31.100Z,92385.34
2023-03-17T10:54:11.232Z,92376.31
2023-03-17T10:56:47.400Z,92366.84
2023-03-17T10:59:25.532Z,92376.59
2023-03-17T11:01:59.488Z,92370.72
2023-03-17T11:04:34.984Z,92370.03
2023-03-17T11:07:14.929Z,92360.25
2023-03-17T11:09:50.125Z,92363.19
2023-03-17T11:12:25.712Z,92345.31
2023-03-17T11:15:00.323Z,92355.69
2023-03-17T11:17:46.918Z,92355.44
2023-03-17T11:20:43.958Z,92352.72
2023-03-17T11:23:52.062Z,92343.22
2023-03-17T11:26:50.297Z,92342.00
2023-03-17T11:29:33.972Z,92346.63
2023-03-17T11:32:27.512Z,92344.59
2023-03-17T11:35:23.772Z,92343.69
2023-03-17T11:38:12.403Z,92336.56
2023-03-17T11:41:08.710Z,92342.84
2023-03-17T11:43:54.939Z,92353.16
2023-03-17T11:46:30.431Z,92343.56
2023-03-17T11:49:11.204Z,92353.88
2023-03-17T11:51:55.960Z,92352.41
2023-03-17T11:54:39.187Z,92348.38
2023-03-17T11:57:16.932Z,92348.44
2023-03-17T11:59:54.096Z,92342.06
2023-03-17T12:02:31.936Z,92336.97
2023-03-17T12:05:09.092Z,92334.91
2023-03-17T12:07:46.068Z,92346.81
2023-03-17T12:10:22.863Z,92339.38
2023-03-17T12:12:58.753Z,92332.91
2023-03-17T12:15:35.911Z,92327.53
2023-03-17T12:18:14.833Z,92316.91
2023-03-17T12:20:53.688Z,92327.78
2023-03-17T12:23:37.425Z,92322.13
2023-03-17T12:26:13.774Z,92325.22
2023-03-17T12:28:51.529Z,92311.75
2023-03-17T12:31:31.283Z,92318.75
2023-03-17T12:34:07.199Z,92320.31
2023-03-17T12:36:40.851Z,92322.38
2023-03-17T12:39:16.139Z,92323.41
2023-03-17T12:42:08.169Z,92317.19
2023-03-17T12:44:57.514Z,92325.66
2023-03-17T12:47:51.480Z,92323.63
2023-03-17T12:50:48.796Z,92317.69
2023-03-17T12:53:29.773Z,92322.59
2023-03-17T12:56:11.966Z,92317.41
2023-03-17T12:58:46.705Z,92318.72
2023-03-17T13:01:29.718Z,92312.47
2023-03-17T13:04:17.756Z,92306.97
2023-03-17T13:06:58.984Z,92307.94
2023-03-17T13:09:42.409Z,92312.31
2023-03-17T13:12:48.022Z,92317.25
2023-03-17T13:15:26.065Z,92316.00
2023-03-17T13:18:26.924Z,92316.91
2023-03-17T13:21:14.121Z,92321.00
2023-03-17T13:23:55.247Z,92315.81
2023-03-17T13:26:52.462Z,92316.13
2023-03-17T13:29:43.229Z,92304.44
2023-03-17T13:32:34.108Z,92306.66
2023-03-17T13:35:20.672Z,92312.38
2023-03-17T13:38:22.242Z,92309.63
2023-03-17T13:41:13.574Z,92313.97
2023-03-17T13:44:01.569Z,92305.03
2023-03-17T13:46:41.181Z,92310.56
2023-03-17T13:49:21.376Z,92306.97
2023-03-17T13:52:00.251Z,92318.69
2023-03-17T13:54:40.757Z,92304.97
2023-03-17T13:57:25.981Z,92309.84
2023-03-17T14:00:02.469Z,92311.72
2023-03-17T14:02:39.248Z,92313.50
2023-03-17T14:05:20.854Z,92312.78
2023-03-17T14:07:56.673Z,92314.09
2023-03-17T14:10:31.620Z,92318.47
2023-03-17T14:13:17.506Z,92315.63
2023-03-17T14:15:56.007Z,92306.81
2023-03-17T14:18:32.586Z,92310.47
2023-03-17T14:21:11.580Z,92310.47
2023-03-17T14:23:52.733Z,92309.69
2023-03-17T14:26:28.513Z,92308.91
2023-03-17T14:29:02.822Z,92317.44
2023-03-17T14:31:35.200Z,92311.75
2023-03-17T14:34:13.902Z,92315.63
2023-03-17T14:36:46.218Z,92315.63
2023-03-17T14:39:25.669Z,92298.81
2023-03-17T14:42:00.934Z,92312.25
2023-03-17T14:44:37.333Z,92312.78
2023-03-17T14:47:18.643Z,92310.97
2023-03-17T14:49:52.620Z,92317.41
2023-03-17T14:52:27.636Z,92312.72
2023-03-17T14:55:00.857Z,92313.72
2023-03-17T14:57:33.997Z,92313.44
2023-03-17T15:00:31.629Z,92311.91
2023-03-17T15:03:15.262Z,92313.44
2023-03-17T15:05:49.466Z,92319.13
2023-03-17T15:08:40.449Z,92323.78
2023-03-17T15:11:19.359Z,92320.53
2023-03-17T15:13:56.381Z,92322.53
2023-03-17T15:16:30.408Z,92323.16
2023-03-17T15:19:05.999Z,92332.50
2023-03-17T15:21:41.023Z,92335.25
2023-03-17T15:24:26.637Z,92332.66
2023-03-17T15:27:00.925Z,92333.13
2023-03-17T15:29:34.098Z,92322.53
2023-03-17T15:32:11.569Z,92341.19
2023-03-17T15:34:44.067Z,92337.97
2023-03-17T15:37:18.758Z,92335.16
2023-03-17T15:39:53.031Z,92333.00
2023-03-17T15:42:27.250Z,92336.00
2023-03-17T15:45:02.090Z,92350.47
2023-03-17T15:47:37.134Z,92341.72
2023-03-17T15:50:15.834Z,92350.84
2023-03-17T15:52:48.185Z,92348.56
2023-03-17T15:55:23.072Z,92358.91
2023-03-17T15:57:56.054Z,92357.16
2023-03-17T16:00:30.286Z,92347.56
2023-03-17T16:03:14.794Z,92355.50
2023-03-17T16:05:47.478Z,92353.72
2023-03-17T16:08:21.063Z,92366.19
2023-03-17T16:10:53.461Z,92366.53
2023-03-17T16:13:25.951Z,92368.03
2023-03-17T16:16:01.035Z,92365.72
2023-03-17T16:18:36.960Z,92362.91
2023-03-17T16:21:09.558Z,92369.94
2023-03-17T16:23:41.947Z,92377.78
2023-03-17T16:26:16.925Z,92375.56
2023-03-17T16:28:49.613Z,92366.50
2023-03-17T16:31:25.359Z,92377.91
2023-03-17T16:33:57.860Z,92378.38
2023-03-17T16:36:30.412Z,92380.38
2023-03-17T16:39:05.069Z,92392.19
2023-03-17T16:41:37.377Z,92379.72
2023-03-17T16:44:11.427Z,92381.25
2023-03-17T16:46:44.547Z,92380.94
2023-03-17T16:49:19.185Z,92381.03
2023-03-17T16:51:51.495Z,92377.50
2023-03-17T16:54:23.771Z,92390.72
2023-03-17T16:56:56.210Z,92376.84
2023-03-17T16:59:30.784Z,92366.72
2023-03-17T17:02:04.019Z,92383.00
2023-03-17T17:04:37.727Z,92383.34
2023-03-17T17:07:10.154Z,92386.25
2023-03-17T17:09:42.451Z,92377.50
2023-03-17T17:12:14.744Z,92382.19
2023-03-17T17:14:46.967Z,92383.22
2023-03-17T17:17:19.937Z,92392.53
2023-03-17T17:19:52.228Z,92400.03
2023-03-17T17:22:24.647Z,92399.47
2023-03-17T17:24:56.942Z,92406.69
2023-03-17T17:27:29.231Z,92403.91
2023-03-17T17:30:02.891Z,92408.56
2023-03-17T17:32:35.967Z,92406.22
2023-03-17T17:35:09.332Z,92413.50
2023-03-17T17:37:41.760Z,92414.75
2023-03-17T17:40:16.568Z,92411.38
2023-03-17T17:42:48.868Z,92409.25
2023-03-17T17:45:21.404Z,92409.84
2023-03-17T17:47:54.498Z,92410.97
2023-03-17T17:50:30.192Z,92413.38
2023-03-17T17:53:04.944Z,92411.50
2023-03-17T17:55:37.610Z,92389.75
2023-03-17T17:58:12.620Z,92413.16
2023-03-17T18:00:45.269Z,92409.22
2023-03-17T18:03:24.121Z,92413.50
2023-03-17T18:05:59.255Z,92414.06
2023-03-17T18:08:33.041Z,92414.88
2023-03-17T18:11:06.980Z,92407.13
2023-03-17T18:13:40.681Z,92410.47
2023-03-17T18:16:16.940Z,92408.69
2023-03-17T18:18:51.554Z,92404.72
2023-03-17T18:21:25.433Z,92403.84
2023-03-17T18:23:59.273Z,92398.59
2023-03-17T18:26:33.243Z,92397.06
2023-03-17T18:29:07.712Z,92401.88
2023-03-17T18:31:44.836Z,92407.41
2023-03-17T18:34:23.338Z,92412.63
2023-03-17T18:36:59.844Z,92405.66
2023-03-17T18:39:34.493Z,92409.91
2023-03-17T18:42:08.861Z,92409.53
2023-03-17T18:44:41.850Z,92410.56
2023-03-17T18:47:15.975Z,92411.28
2023-03-17T18:49:50.248Z,92401.19
2023-03-17T18:52:23.769Z,92411.72
2023-03-17T18:54:57.155Z,92415.31
2023-03-17T18:57:30.731Z,92411.34
2023-03-17T19:00:05.025Z,92416.19
2023-03-17T19:02:38.317Z,92409.50
2023-03-17T19:05:12.140Z,92417.13
2023-03-17T19:07:44.558Z,92415.81
2023-03-17T19:10:17.348Z,92412.78
2023-03-17T19:12:51.417Z,92414.69
2023-03-17T19:15:23.720Z,92410.75
2023-03-17T19:17:56.031Z,92409.13
2023-03-17T19:20:29.333Z,92408.91
2023-03-17T19:23:03.739Z,92398.66
2023-03-17T19:25:36.149Z,92406.44
2023-03-17T19:28:08.625Z,92408.91
2023-03-17T19:30:44.206Z,92401.44
2023-03-17T19:33:16.877Z,92404.84
2023-03-17T19:35:55.249Z,92389.53
2023-03-17T19:38:27.957Z,92401.16
2023-03-17T19:41:00.325Z,92393.22
2023-03-17T19:43:40.262Z,92396.56
2023-03-17T19:46:13.819Z,92403.31
2023-03-17T19:48:46.128Z,92398.78
2023-03-17T19:51:19.532Z,92390.94
2023-03-17T19:53:51.877Z,92395.06
2023-03-17T19:56:24.426Z,92400.69
2023-03-17T19:58:56.829Z,92395.66
2023-03-17T20:01:31.261Z,92397.44
2023-03-17T20:04:06.021Z,92398.44
2023-03-17T20:06:39.359Z,92398.56
2023-03-17T20:09:11.941Z,92392.34
2023-03-17T20:11:44.285Z,92389.09
2023-03-17T20:14:16.620Z,92386.31
2023-03-17T20:16:49.971Z,92394.59
2023-03-17T20:19:23.128Z,92391.47
2023-03-17T20:21:57.814Z,92386.16
2023-03-17T20:24:30.924Z,92385.13
2023-03-17T20:27:04.448Z,92383.59
2023-03-17T20:29:36.905Z,92376.31
2023-03-17T20:32:09.846Z,92367.28
2023-03-17T20:34:42.806Z,92370.75
2023-03-17T20:37:15.890Z,92367.19
2023-03-17T20:39:48.247Z,92378.25
2023-03-17T20:42:20.997Z,92368.72
2023-03-17T20:44:53.374Z,92369.72
2023-03-17T20:47:26.420Z,92372.63
2023-03-17T20:49:59.585Z,92371.81
2023-03-17T20:52:32.569Z,92381.16
2023-03-17T20:55:05.591Z,92380.50
2023-03-17T20:57:38.136Z,92378.25
2023-03-17T21:00:15.565Z,92375.78
2023-03-17T21:02:49.573Z,92371.66
2023-03-17T21:05:24.281Z,92378.44
2023-03-17T21:07:57.408Z,92380.75
2023-03-17T21:10:29.908Z,92377.53
2023-03-17T21:13:02.431Z,92375.72
2023-03-17T21:15:35.209Z,92375.19
2023-03-17T21:18:07.535Z,92374.28
2023-03-17T21:20:41.344Z,92378.03
2023-03-17T21:23:14.346Z,92373.66
2023-03-17T21:25:47.119Z,92370.53
2023-03-17T21:28:20.899Z,92368.97
2023-03-17T21:30:53.223Z,92341.53
2023-03-17T21:33:25.548Z,92372.31
2023-03-17T21:35:58.333Z,92361.19
2023-03-17T21:38:31.400Z,92364.44
2023-03-17T21:41:20.584Z,92366.00
2023-03-17T21:43:54.441Z,92368.13
2023-03-17T21:46:27.056Z,92368.78
2023-03-17T21:49:00.985Z,92368.25
2023-03-17T21:51:34.291Z,92342.81
2023-03-17T21:54:07.339Z,92361.66
2023-03-17T21:56:40.709Z,92352.41
2023-03-17T21:59:14.799Z,92354.19
2023-03-17T22:01:51.186Z,92362.25
2023-03-17T22:04:23.769Z,92356.00
2023-03-17T22:06:56.439Z,92359.78
2023-03-17T22:09:29.477Z,92361.81
2023-03-17T22:12:03.087Z,92360.56
2023-03-17T22:14:37.506Z,92339.72
2023-03-17T22:17:10.046Z,92355.56
2023-03-17T22:19:43.286Z,92355.56
2023-03-17T22:22:15.840Z,92350.53
2023-03-17T22:24:49.040Z,92348.56
2023-03-17T22:27:21.729Z,92347.09
2023-03-17T22:29:54.070Z,92346.19
2023-03-17T22:32:26.470Z,92348.09
2023-03-17T22:34:58.764Z,92353.00
2023-03-17T22:37:31.112Z,92353.00
2023-03-17T22:40:05.700Z,92323.91
2023-03-17T22:42:37.992Z,92350.09
2023-03-17T22:45:13.082Z,92350.88
2023-03-17T22:47:45.562Z,92347.66
2023-03-17T22:50:18.238Z,92345.75
2023-03-17T22:52:50.906Z,92345.88
2023-03-17T22:55:23.976Z,92347.31
2023-03-17T22:57:56.309Z,92339.81
2023-03-17T23:00:30.625Z,92340.84
2023-03-17T23:03:03.233Z,92341.06
2023-03-17T23:05:35.545Z,92336.72
2023-03-17T23:08:07.878Z,92333.47
2023-03-17T23:10:41.643Z,92339.94
2023-03-17T23:13:14.230Z,92339.38
2023-03-17T23:15:47.378Z,92340.59
2023-03-17T23:18:19.699Z,92346.28
2023-03-17T23:20:52.950Z,92339.59
2023-03-17T23:23:25.280Z,92345.25
2023-03-17T23:25:59.927Z,92337.31
2023-03-17T23:28:32.833Z,92342.69
2023-03-17T23:31:05.238Z,92339.69
2023-03-17T23:33:38.063Z,92335.78
2023-03-17T23:36:10.616Z,92337.75
2023-03-17T23:38:43.804Z,92332.38
2023-03-17T23:41:16.993Z,92343.63
2023-03-17T23:43:49.955Z,92327.34
2023-03-17T23:46:22.342Z,92328.03
2023-03-17T23:48:54.688Z,92325.56
2023-03-17T23:51:28.274Z,92322.44
2023-03-17T23:54:00.876Z,92320.53
2023-03-17T23:56:34.007Z,92321.66
2023-03-17T23:59:07.393Z,92296.88
